Time;durP1;ratioP1;P1;durP2;ratioP2;P2;SDS_P1;SDS_P2;PMS_P1;PMS_P2;Temp;Humidity;BMP_temperature;BMP_pressure;BME280_temperature;BME280_humidity;BME280_pressure;Samples;Min_cycle;Max_cycle;Signal;HPM_P1;HPM_P2
2022/07/13 00:00:29;;;;;;;64.72;26.48;;;;;;;;;;4904612;29;20092;-57
2022/07/13 00:02:56;;;;;;;65.22;27.55;;;;;;;;;;4912414;29;20043;-57
2022/07/13 00:05:23;;;;;;;68.75;29.92;;;;;;;;;;4913461;29;20051;-61
2022/07/13 00:07:50;;;;;;;67.22;27.83;;;;;;;;;;4916760;29;20742;-57
2022/07/13 00:10:17;;;;;;;81.82;30.20;;;;;;;;;;4917675;29;20036;-55
2022/07/13 00:12:44;;;;;;;67.93;28.95;;;;;;;;;;4913817;29;20732;-51
2022/07/13 00:15:11;;;;;;;58.90;26.95;;;;;;;;;;4907146;29;20037;-60
2022/07/13 00:17:39;;;;;;;65.13;26.38;;;;;;;;;;4913842;29;20043;-60
2022/07/13 00:20:06;;;;;;;63.72;24.30;;;;;;;;;;4913354;29;20075;-57
2022/07/13 00:22:33;;;;;;;62.08;27.25;;;;;;;;;;4921121;29;20147;-58
2022/07/13 00:25:00;;;;;;;78.38;32.10;;;;;;;;;;4913342;29;20490;-60
2022/07/13 00:27:27;;;;;;;68.13;29.02;;;;;;;;;;4913113;29;20043;-58
2022/07/13 00:29:54;;;;;;;64.45;28.67;;;;;;;;;;4912072;29;20066;-57
2022/07/13 00:32:21;;;;;;;66.20;24.77;;;;;;;;;;4912484;29;20613;-57
2022/07/13 00:34:48;;;;;;;54.60;25.88;;;;;;;;;;4914905;29;20028;-56
2022/07/13 00:37:15;;;;;;;55.42;24.73;;;;;;;;;;4913285;29;20060;-56
2022/07/13 00:39:42;;;;;;;52.88;25.52;;;;;;;;;;4911751;29;20036;-58
2022/07/13 00:42:09;;;;;;;58.97;25.42;;;;;;;;;;4913043;29;20035;-55
2022/07/13 00:44:36;;;;;;;55.70;25.92;;;;;;;;;;4912926;29;20090;-56
2022/07/13 00:47:03;;;;;;;66.65;27.33;;;;;;;;;;4912736;29;20035;-59
2022/07/13 00:49:32;;;;;;;73.45;25.38;;;;;;;;;;4918391;29;20032;-59
2022/07/13 00:51:59;;;;;;;58.50;26.50;;;;;;;;;;4920814;29;20429;-60
2022/07/13 00:54:30;;;;;;;76.38;25.77;;;;;;;;;;4912424;29;20039;-60
2022/07/13 00:56:57;;;;;;;51.70;24.42;;;;;;;;;;4910524;29;20155;-59
2022/07/13 00:59:25;;;;;;;56.70;26.98;;;;;;;;;;4912451;29;20028;-58
2022/07/13 01:01:53;;;;;;;74.53;28.20;;;;;;;;;;4910149;29;20040;-60
2022/07/13 01:04:23;;;;;;;59.15;29.35;;;;;;;;;;4911962;29;20570;-57
2022/07/13 01:06:52;;;;;;;70.22;32.28;;;;;;;;;;4911585;29;20700;-59
2022/07/13 01:09:20;;;;;;;83.35;33.40;;;;;;;;;;4910308;29;20486;-60
2022/07/13 01:11:47;;;;;;;70.38;34.90;;;;;;;;;;4910485;29;20071;-60
2022/07/13 01:14:15;;;;;;;74.18;35.28;;;;;;;;;;4911513;29;20031;-60
2022/07/13 01:16:42;;;;;;;75.20;36.17;;;;;;;;;;4909488;29;20066;-60
2022/07/13 01:19:11;;;;;;;82.00;37.92;;;;;;;;;;4910396;29;20028;-59
2022/07/13 01:21:41;;;;;;;82.40;37.22;;;;;;;;;;4910417;29;20036;-60
2022/07/13 01:24:08;;;;;;;81.70;35.97;;;;;;;;;;4912678;29;20538;-58
2022/07/13 01:26:37;;;;;;;86.32;38.78;;;;;;;;;;4903410;29;20036;-57
2022/07/13 01:29:04;;;;;;;84.13;40.75;;;;;;;;;;4894780;29;20036;-60
2022/07/13 01:31:35;;;;;;;87.30;41.60;;;;;;;;;;4893431;29;20040;-59
2022/07/13 01:34:02;;;;;;;80.25;40.92;;;;;;;;;;4894629;29;20044;-60
2022/07/13 01:36:29;;;;;;;91.75;45.50;;;;;;;;;;4894333;29;20502;-59
2022/07/13 01:38:57;;;;;;;90.30;42.97;;;;;;;;;;4893669;29;20080;-58
2022/07/13 01:41:25;;;;;;;82.65;44.25;;;;;;;;;;4893811;29;20044;-59
2022/07/13 01:43:53;;;;;;;90.20;46.30;;;;;;;;;;4892131;29;20423;-59
2022/07/13 01:46:20;;;;;;;87.80;45.33;;;;;;;;;;4903543;29;20092;-58
2022/07/13 01:48:46;;;;;;;88.53;48.08;;;;;;;;;;4912906;29;20138;-59
2022/07/13 01:51:13;;;;;;;87.95;48.25;;;;;;;;;;4912763;29;20028;-58
2022/07/13 01:53:40;;;;;;;94.25;49.25;;;;;;;;;;4912849;29;20039;-59
2022/07/13 01:56:08;;;;;;;88.55;49.45;;;;;;;;;;4910543;29;20031;-59
2022/07/13 01:58:35;;;;;;;89.65;49.15;;;;;;;;;;4913579;29;20051;-60
2022/07/13 02:01:02;;;;;;;86.35;48.75;;;;;;;;;;4909854;29;20572;-59
2022/07/13 02:03:30;;;;;;;91.35;48.67;;;;;;;;;;4926629;29;20028;-58
2022/07/13 02:05:58;;;;;;;96.57;49.80;;;;;;;;;;4905247;29;20082;-61
2022/07/13 02:08:25;;;;;;;90.50;48.47;;;;;;;;;;4915937;29;20040;-59
2022/07/13 02:10:52;;;;;;;79.18;47.20;;;;;;;;;;4923660;29;20115;-52
2022/07/13 02:13:21;;;;;;;89.88;48.97;;;;;;;;;;4913218;29;20075;-57
2022/07/13 02:15:48;;;;;;;86.93;48.72;;;;;;;;;;4916501;29;20039;-56
2022/07/13 02:18:15;;;;;;;87.55;48.47;;;;;;;;;;4925089;29;20043;-56
2022/07/13 02:20:42;;;;;;;92.13;50.70;;;;;;;;;;4910975;29;20032;-56
2022/07/13 02:23:09;;;;;;;92.45;50.85;;;;;;;;;;4917389;29;20119;-56
2022/07/13 02:25:37;;;;;;;89.30;50.47;;;;;;;;;;4920920;29;20036;-57
2022/07/13 02:28:06;;;;;;;86.05;51.08;;;;;;;;;;4910281;29;20047;-57
2022/07/13 02:30:34;;;;;;;84.63;49.85;;;;;;;;;;4910131;29;20048;-56
2022/07/13 02:33:01;;;;;;;86.55;49.65;;;;;;;;;;4912451;29;20095;-59
2022/07/13 02:35:28;;;;;;;85.32;49.30;;;;;;;;;;4911768;29;20046;-56
2022/07/13 02:37:55;;;;;;;86.15;50.72;;;;;;;;;;4912511;29;20047;-57
2022/07/13 02:40:22;;;;;;;101.15;51.88;;;;;;;;;;4911909;29;20030;-56
2022/07/13 02:42:49;;;;;;;102.55;51.03;;;;;;;;;;4911804;29;20043;-54
2022/07/13 02:45:16;;;;;;;97.07;49.60;;;;;;;;;;4912254;29;20048;-55
2022/07/13 02:47:44;;;;;;;87.75;45.53;;;;;;;;;;4911968;29;20051;-57
2022/07/13 02:50:11;;;;;;;81.28;44.95;;;;;;;;;;4914300;29;20027;-56
2022/07/13 02:52:38;;;;;;;83.00;44.83;;;;;;;;;;4912952;29;20150;-53
2022/07/13 02:55:05;;;;;;;82.82;44.63;;;;;;;;;;4914755;29;20024;-56
2022/07/13 02:57:32;;;;;;;71.75;42.80;;;;;;;;;;4911559;29;20071;-56
2022/07/13 02:59:59;;;;;;;72.90;41.97;;;;;;;;;;4914803;29;20475;-54
2022/07/13 03:02:26;;;;;;;81.18;41.72;;;;;;;;;;4914033;29;20555;-53
2022/07/13 03:04:53;;;;;;;71.18;41.00;;;;;;;;;;4909415;29;20052;-57
2022/07/13 03:07:20;;;;;;;78.03;41.75;;;;;;;;;;4905143;29;20036;-56
2022/07/13 03:09:47;;;;;;;74.35;38.42;;;;;;;;;;4900594;29;20032;-56
2022/07/13 03:12:14;;;;;;;77.88;37.58;;;;;;;;;;4894862;29;20514;-53
2022/07/13 03:14:41;;;;;;;71.22;37.97;;;;;;;;;;4896099;29;20032;-57
2022/07/13 03:17:08;;;;;;;68.55;38.75;;;;;;;;;;4896389;29;20458;-57
2022/07/13 03:19:35;;;;;;;61.85;37.00;;;;;;;;;;4894845;29;20124;-53
2022/07/13 03:22:05;;;;;;;64.88;36.92;;;;;;;;;;4896634;29;20036;-57
2022/07/13 03:24:33;;;;;;;59.40;33.80;;;;;;;;;;4894524;29;20103;-52
2022/07/13 03:27:00;;;;;;;58.97;34.75;;;;;;;;;;4896484;29;20036;-53
2022/07/13 03:29:27;;;;;;;61.72;34.10;;;;;;;;;;4896232;29;20029;-57
2022/07/13 03:31:54;;;;;;;65.72;34.75;;;;;;;;;;4895581;29;20555;-55
2022/07/13 03:34:21;;;;;;;54.95;33.50;;;;;;;;;;4894656;29;20033;-54
2022/07/13 03:36:48;;;;;;;59.47;31.98;;;;;;;;;;4896353;29;20028;-51
2022/07/13 03:39:15;;;;;;;55.67;31.40;;;;;;;;;;4895551;29;20112;-53
2022/07/13 03:41:42;;;;;;;53.90;31.30;;;;;;;;;;4899844;29;20047;-51
2022/07/13 03:44:12;;;;;;;58.13;30.33;;;;;;;;;;4899784;29;20161;-53
2022/07/13 03:46:40;;;;;;;53.15;29.88;;;;;;;;;;4899131;29;20104;-53
2022/07/13 03:49:07;;;;;;;56.03;29.83;;;;;;;;;;4898272;29;20040;-53
2022/07/13 03:51:35;;;;;;;49.40;28.27;;;;;;;;;;4895934;29;20044;-51
2022/07/13 03:54:02;;;;;;;49.85;28.65;;;;;;;;;;4899466;29;20493;-50
2022/07/13 03:56:29;;;;;;;50.13;28.17;;;;;;;;;;4899983;29;20115;-53
2022/07/13 03:58:56;;;;;;;47.08;26.58;;;;;;;;;;4899792;29;20035;-55
2022/07/13 04:01:23;;;;;;;45.75;26.55;;;;;;;;;;4899423;29;20037;-52
2022/07/13 04:03:51;;;;;;;43.63;26.10;;;;;;;;;;4897975;29;20033;-51
2022/07/13 04:06:18;;;;;;;48.30;26.80;;;;;;;;;;4899815;29;20102;-55
2022/07/13 04:08:46;;;;;;;43.05;26.45;;;;;;;;;;4899905;29;20522;-55
2022/07/13 04:11:13;;;;;;;44.20;24.90;;;;;;;;;;4899181;29;20143;-53
2022/07/13 04:13:40;;;;;;;45.28;25.15;;;;;;;;;;4900057;29;20028;-54
2022/07/13 04:16:07;;;;;;;41.00;24.38;;;;;;;;;;4899687;29;20583;-55
2022/07/13 04:18:34;;;;;;;41.55;23.67;;;;;;;;;;4897995;29;20372;-51
2022/07/13 04:21:01;;;;;;;39.42;23.90;;;;;;;;;;4899527;29;20101;-55
2022/07/13 04:23:30;;;;;;;42.70;22.63;;;;;;;;;;4901404;29;20066;-53
2022/07/13 04:25:57;;;;;;;38.55;23.33;;;;;;;;;;4936016;29;20056;-56
2022/07/13 04:28:24;;;;;;;42.92;22.92;;;;;;;;;;4936322;29;20075;-52
2022/07/13 04:30:52;;;;;;;37.55;22.25;;;;;;;;;;4936407;29;20023;-54
2022/07/13 04:33:19;;;;;;;39.22;21.13;;;;;;;;;;4935871;29;20031;-52
2022/07/13 04:35:46;;;;;;;37.38;20.65;;;;;;;;;;4936935;29;20147;-54
2022/07/13 04:38:13;;;;;;;41.53;20.92;;;;;;;;;;4936302;29;20031;-52
2022/07/13 04:40:40;;;;;;;30.70;19.55;;;;;;;;;;4929149;29;20024;-54
2022/07/13 04:43:07;;;;;;;30.77;18.38;;;;;;;;;;4911919;29;20036;-56
2022/07/13 04:45:34;;;;;;;31.60;19.35;;;;;;;;;;4917224;29;20455;-54
2022/07/13 04:48:01;;;;;;;34.30;19.02;;;;;;;;;;4916599;29;20055;-55
2022/07/13 04:50:29;;;;;;;30.00;17.58;;;;;;;;;;4917937;29;20048;-55
2022/07/13 04:52:56;;;;;;;29.65;17.08;;;;;;;;;;4915688;29;20036;-50
2022/07/13 04:55:23;;;;;;;30.60;18.27;;;;;;;;;;4916751;29;20035;-55
2022/07/13 04:57:50;;;;;;;29.00;17.15;;;;;;;;;;4917212;29;20836;-51
2022/07/13 05:00:16;;;;;;;28.88;16.17;;;;;;;;;;4917329;29;20036;-56
2022/07/13 05:02:43;;;;;;;25.52;15.07;;;;;;;;;;4916657;29;20040;-53
2022/07/13 05:05:10;;;;;;;29.10;15.95;;;;;;;;;;4915986;29;20044;-52
2022/07/13 05:07:37;;;;;;;25.67;15.60;;;;;;;;;;4917186;29;20534;-54
2022/07/13 05:10:05;;;;;;;21.65;14.13;;;;;;;;;;4916840;29;20032;-52
2022/07/13 05:12:32;;;;;;;26.67;14.80;;;;;;;;;;4916576;29;20036;-55
2022/07/13 05:14:59;;;;;;;20.98;13.40;;;;;;;;;;4917553;29;20032;-56
2022/07/13 05:17:26;;;;;;;24.40;14.27;;;;;;;;;;4916953;29;20035;-53
2022/07/13 05:19:53;;;;;;;30.88;14.20;;;;;;;;;;4917574;29;20024;-52
2022/07/13 05:22:20;;;;;;;25.13;13.30;;;;;;;;;;4916820;29;20478;-54
2022/07/13 05:24:47;;;;;;;21.92;12.55;;;;;;;;;;4916893;29;20091;-52
2022/07/13 05:27:14;;;;;;;25.48;13.30;;;;;;;;;;4917071;29;20368;-51
2022/07/13 05:29:41;;;;;;;26.23;12.57;;;;;;;;;;4916861;29;20036;-53
2022/07/13 05:32:08;;;;;;;25.55;12.70;;;;;;;;;;4917207;29;20110;-52
2022/07/13 05:34:35;;;;;;;22.75;12.50;;;;;;;;;;4916687;29;20088;-52
2022/07/13 05:37:02;;;;;;;19.10;12.43;;;;;;;;;;4917039;29;20047;-51
2022/07/13 05:39:29;;;;;;;17.85;11.55;;;;;;;;;;4916639;29;20037;-52
2022/07/13 05:41:56;;;;;;;16.80;11.20;;;;;;;;;;4917013;29;20044;-52
2022/07/13 05:44:23;;;;;;;22.50;11.25;;;;;;;;;;4916563;29;20075;-52
2022/07/13 05:46:50;;;;;;;21.52;11.15;;;;;;;;;;4916704;29;20044;-52
2022/07/13 05:49:17;;;;;;;18.58;10.52;;;;;;;;;;4916386;29;20054;-53
2022/07/13 05:51:44;;;;;;;18.90;10.73;;;;;;;;;;4916862;29;20024;-56
2022/07/13 05:54:11;;;;;;;18.88;10.30;;;;;;;;;;4916523;29;20123;-56
2022/07/13 05:56:39;;;;;;;18.15;10.93;;;;;;;;;;4916940;29;20024;-53
2022/07/13 05:59:06;;;;;;;18.48;11.00;;;;;;;;;;4916917;29;20468;-54
2022/07/13 06:01:33;;;;;;;17.67;10.38;;;;;;;;;;4915987;29;20059;-52
2022/07/13 06:04:00;;;;;;;17.80;9.80;;;;;;;;;;4915776;29;20028;-55
2022/07/13 06:06:27;;;;;;;18.38;10.07;;;;;;;;;;4916280;29;20127;-52
2022/07/13 06:08:54;;;;;;;21.73;10.45;;;;;;;;;;4916284;29;20043;-54
2022/07/13 06:11:21;;;;;;;19.35;10.20;;;;;;;;;;4916649;29;20499;-52
2022/07/13 06:13:48;;;;;;;14.73;9.65;;;;;;;;;;4915683;29;20043;-51
2022/07/13 06:16:15;;;;;;;14.27;9.05;;;;;;;;;;4916198;29;20032;-50
2022/07/13 06:18:42;;;;;;;16.52;8.93;;;;;;;;;;4916023;29;20096;-52
2022/07/13 06:21:09;;;;;;;17.20;8.90;;;;;;;;;;4915287;29;20039;-52
2022/07/13 06:23:36;;;;;;;16.40;8.23;;;;;;;;;;4915580;29;20042;-53
2022/07/13 06:26:03;;;;;;;13.60;7.78;;;;;;;;;;4916035;29;20040;-54
2022/07/13 06:28:30;;;;;;;16.23;9.02;;;;;;;;;;4915846;29;20063;-51
2022/07/13 06:30:57;;;;;;;16.20;8.40;;;;;;;;;;4915294;29;20259;-54
2022/07/13 06:33:23;;;;;;;11.95;7.70;;;;;;;;;;4914708;29;20064;-55
2022/07/13 06:35:50;;;;;;;15.32;7.60;;;;;;;;;;4915606;29;20099;-53
2022/07/13 06:38:17;;;;;;;17.27;7.95;;;;;;;;;;4915188;29;20056;-52
2022/07/13 06:40:44;;;;;;;15.68;7.82;;;;;;;;;;4916436;29;20384;-56
2022/07/13 06:43:11;;;;;;;15.80;8.18;;;;;;;;;;4916540;29;20035;-53
2022/07/13 06:45:39;;;;;;;14.27;7.68;;;;;;;;;;4917600;29;20083;-55
2022/07/13 06:48:06;;;;;;;12.93;6.53;;;;;;;;;;4916681;29;20068;-52
2022/07/13 06:50:33;;;;;;;13.55;6.45;;;;;;;;;;4915508;29;20131;-51
2022/07/13 06:53:01;;;;;;;13.18;6.78;;;;;;;;;;4916009;29;20063;-53
2022/07/13 06:55:28;;;;;;;17.38;7.00;;;;;;;;;;4915810;29;20036;-55
2022/07/13 06:57:55;;;;;;;12.05;6.32;;;;;;;;;;4916241;29;20095;-51
2022/07/13 07:00:23;;;;;;;15.63;7.00;;;;;;;;;;4915497;29;20698;-54
2022/07/13 07:02:49;;;;;;;15.23;6.20;;;;;;;;;;4916173;29;20027;-54
2022/07/13 07:05:16;;;;;;;14.20;6.88;;;;;;;;;;4915347;29;20123;-52
2022/07/13 07:07:43;;;;;;;11.23;6.13;;;;;;;;;;4915780;29;20070;-53
2022/07/13 07:10:11;;;;;;;14.13;6.40;;;;;;;;;;4916186;29;20063;-54
2022/07/13 07:12:38;;;;;;;10.50;5.70;;;;;;;;;;4915247;29;20040;-54
2022/07/13 07:15:06;;;;;;;9.20;5.47;;;;;;;;;;4915622;29;20075;-54
2022/07/13 07:17:33;;;;;;;11.82;5.70;;;;;;;;;;4915526;29;20111;-55
2022/07/13 07:20:03;;;;;;;12.05;5.88;;;;;;;;;;4915619;29;20504;-51
2022/07/13 07:22:30;;;;;;;12.35;5.55;;;;;;;;;;4915035;29;20040;-51
2022/07/13 07:24:57;;;;;;;12.30;5.82;;;;;;;;;;4915515;29;20066;-53
2022/07/13 07:27:24;;;;;;;8.27;5.07;;;;;;;;;;4915515;29;20059;-55
2022/07/13 07:29:51;;;;;;;15.38;6.05;;;;;;;;;;4915319;29;20402;-51
2022/07/13 07:32:18;;;;;;;12.63;5.43;;;;;;;;;;4915731;29;20040;-54
2022/07/13 07:34:45;;;;;;;11.20;5.10;;;;;;;;;;4915399;29;20372;-54
2022/07/13 07:37:12;;;;;;;8.55;4.72;;;;;;;;;;4915220;29;20055;-50
2022/07/13 07:39:40;;;;;;;9.65;4.90;;;;;;;;;;4915611;29;20439;-51
2022/07/13 07:42:07;;;;;;;10.75;4.65;;;;;;;;;;4915372;29;20562;-54
2022/07/13 07:44:34;;;;;;;9.65;4.95;;;;;;;;;;4915421;29;20032;-50
2022/07/13 07:47:01;;;;;;;9.75;5.05;;;;;;;;;;4915023;29;20032;-51
2022/07/13 07:49:28;;;;;;;9.68;4.55;;;;;;;;;;4915808;29;20111;-54
2022/07/13 07:51:55;;;;;;;8.82;4.90;;;;;;;;;;4915116;29;20044;-52
2022/07/13 07:54:22;;;;;;;9.77;4.80;;;;;;;;;;4915789;29;20032;-54
2022/07/13 07:56:49;;;;;;;11.38;4.55;;;;;;;;;;4914931;29;20035;-51
2022/07/13 07:59:16;;;;;;;9.85;4.50;;;;;;;;;;4915619;29;20028;-55
2022/07/13 08:01:43;;;;;;;11.30;4.05;;;;;;;;;;4915385;29;20032;-54
2022/07/13 08:04:10;;;;;;;10.00;4.57;;;;;;;;;;4915049;29;20135;-57
2022/07/13 08:06:41;;;;;;;8.20;4.32;;;;;;;;;;4915462;29;20040;-51
2022/07/13 08:09:08;;;;;;;10.68;4.40;;;;;;;;;;4914890;29;20035;-51
2022/07/13 08:11:35;;;;;;;9.52;4.20;;;;;;;;;;4915615;29;20058;-53
2022/07/13 08:14:02;;;;;;;8.30;3.83;;;;;;;;;;4915367;29;20055;-51
2022/07/13 08:16:29;;;;;;;10.70;3.97;;;;;;;;;;4914993;29;20032;-53
2022/07/13 08:18:56;;;;;;;9.23;4.07;;;;;;;;;;4915482;29;20036;-54
2022/07/13 08:21:23;;;;;;;7.68;3.85;;;;;;;;;;4914916;29;20043;-53
2022/07/13 08:23:53;;;;;;;12.05;4.00;;;;;;;;;;4915522;29;20024;-51
2022/07/13 08:26:20;;;;;;;11.00;3.85;;;;;;;;;;4914565;29;20040;-52
2022/07/13 08:28:48;;;;;;;9.15;3.58;;;;;;;;;;4918903;29;20060;-53
2022/07/13 08:31:15;;;;;;;10.60;4.00;;;;;;;;;;4918134;29;20040;-52
2022/07/13 08:39:13;;;;;;;11.05;3.22;;;;;;;;;;4919049;29;20051;-55
2022/07/13 08:41:40;;;;;;;6.55;3.58;;;;;;;;;;4917817;29;20059;-54
2022/07/13 08:44:08;;;;;;;7.22;3.63;;;;;;;;;;4918555;29;20106;-53
2022/07/13 08:46:35;;;;;;;8.93;3.70;;;;;;;;;;4917931;29;20071;-55
2022/07/13 08:49:02;;;;;;;8.75;3.33;;;;;;;;;;4917995;29;20058;-53
2022/07/13 08:51:31;;;;;;;5.80;3.00;;;;;;;;;;4917588;29;20028;-56
2022/07/13 08:53:58;;;;;;;6.32;2.92;;;;;;;;;;4918469;29;20051;-54
2022/07/13 08:56:25;;;;;;;7.45;3.25;;;;;;;;;;4918391;29;20049;-52
2022/07/13 08:58:52;;;;;;;7.15;3.35;;;;;;;;;;4918318;29;20044;-53
2022/07/13 09:01:20;;;;;;;5.78;3.03;;;;;;;;;;4917525;29;20028;-55
2022/07/13 09:03:47;;;;;;;8.90;3.15;;;;;;;;;;4918010;29;20056;-56
2022/07/13 09:06:37;;;;;;;6.90;3.15;;;;;;;;;;4918154;29;20051;-52
2022/07/13 09:09:04;;;;;;;9.60;3.28;;;;;;;;;;4910202;29;20051;-55
2022/07/13 09:11:31;;;;;;;5.93;3.47;;;;;;;;;;4917812;29;20083;-50
2022/07/13 09:13:58;;;;;;;7.85;2.92;;;;;;;;;;4917742;29;20032;-51
2022/07/13 09:16:26;;;;;;;5.05;2.83;;;;;;;;;;4917375;29;20048;-53
2022/07/13 09:18:54;;;;;;;7.65;3.17;;;;;;;;;;4918014;29;20036;-55
2022/07/13 09:21:23;;;;;;;4.75;2.78;;;;;;;;;;4917259;29;20032;-53
2022/07/13 09:23:54;;;;;;;6.82;2.50;;;;;;;;;;4917741;29;20099;-55
2022/07/13 09:26:21;;;;;;;6.05;2.80;;;;;;;;;;4917640;29;20042;-53
2022/07/13 09:28:49;;;;;;;5.00;2.45;;;;;;;;;;4916823;29;20055;-55
2022/07/13 09:31:17;;;;;;;5.63;2.72;;;;;;;;;;4917913;29;20423;-54
2022/07/13 09:33:44;;;;;;;6.93;2.85;;;;;;;;;;4916875;29;20402;-54
2022/07/13 09:36:13;;;;;;;6.22;2.80;;;;;;;;;;4917553;29;20125;-54
2022/07/13 09:38:42;;;;;;;4.68;2.67;;;;;;;;;;4916584;29;20522;-53
2022/07/13 09:41:27;;;;;;;6.13;2.72;;;;;;;;;;4917685;29;20439;-52
2022/07/13 09:46:52;;;;;;;7.72;2.63;;;;;;;;;;4917292;29;20051;-52
2022/07/13 09:49:19;;;;;;;7.53;2.42;;;;;;;;;;4916573;29;20035;-53
2022/07/13 09:51:46;;;;;;;5.20;2.63;;;;;;;;;;4917410;29;20479;-55
2022/07/13 09:54:13;;;;;;;9.32;2.75;;;;;;;;;;4916756;29;20032;-53
2022/07/13 09:56:49;;;;;;;5.78;2.47;;;;;;;;;;4916865;29;20111;-54
2022/07/13 09:59:17;;;;;;;7.47;2.75;;;;;;;;;;4917042;29;20040;-52
2022/07/13 10:01:45;;;;;;;9.13;2.70;;;;;;;;;;4916585;29;20028;-55
2022/07/13 10:04:13;;;;;;;7.18;2.58;;;;;;;;;;4916390;29;20107;-56
2022/07/13 10:06:40;;;;;;;9.15;2.40;;;;;;;;;;4916774;29;20123;-54
2022/07/13 10:09:07;;;;;;;7.25;2.40;;;;;;;;;;4916652;29;20045;-53
2022/07/13 10:11:35;;;;;;;7.25;2.30;;;;;;;;;;4916143;29;20514;-55
2022/07/13 10:14:02;;;;;;;6.47;2.28;;;;;;;;;;4916943;29;20095;-53
2022/07/13 10:16:30;;;;;;;6.68;2.30;;;;;;;;;;4916365;29;20031;-55
2022/07/13 10:19:03;;;;;;;7.45;2.35;;;;;;;;;;4916947;29;20086;-55
2022/07/13 10:21:48;;;;;;;7.88;2.35;;;;;;;;;;4916040;29;20471;-55
2022/07/13 10:24:19;;;;;;;5.70;2.55;;;;;;;;;;4916366;29;20051;-50
2022/07/13 10:26:49;;;;;;;8.90;2.42;;;;;;;;;;4915070;29;20119;-50
2022/07/13 10:29:16;;;;;;;8.35;2.60;;;;;;;;;;4915405;29;20043;-53
2022/07/13 10:31:44;;;;;;;7.03;2.55;;;;;;;;;;4915508;29;20059;-55
2022/07/13 10:34:12;;;;;;;11.43;2.50;;;;;;;;;;4915472;29;20119;-55
2022/07/13 10:36:58;;;;;;;11.45;3.15;;;;;;;;;;4915638;29;20028;-54
2022/07/13 10:39:26;;;;;;;12.52;2.88;;;;;;;;;;4912889;29;20024;-50
2022/07/13 10:41:56;;;;;;;11.40;2.75;;;;;;;;;;4916014;29;20558;-53
2022/07/13 10:44:36;;;;;;;9.10;2.70;;;;;;;;;;4915813;29;20032;-54
2022/07/13 10:47:04;;;;;;;15.20;3.20;;;;;;;;;;4916126;29;20052;-52
2022/07/13 10:49:35;;;;;;;7.07;2.30;;;;;;;;;;4914804;29;20043;-54
2022/07/13 10:52:26;;;;;;;10.18;2.70;;;;;;;;;;4915526;29;20036;-56
2022/07/13 10:55:11;;;;;;;12.77;2.58;;;;;;;;;;4915264;29;20081;-52
2022/07/13 10:57:39;;;;;;;17.60;3.08;;;;;;;;;;4915613;29;20115;-53
2022/07/13 11:00:18;;;;;;;18.67;2.83;;;;;;;;;;4914549;29;20501;-53
2022/07/13 11:02:50;;;;;;;15.90;3.08;;;;;;;;;;4916183;29;20090;-53
2022/07/13 11:05:18;;;;;;;16.48;2.80;;;;;;;;;;4914902;29;20082;-53
2022/07/13 11:07:49;;;;;;;18.02;2.83;;;;;;;;;;4915199;29;20529;-54
2022/07/13 11:10:28;;;;;;;20.08;3.00;;;;;;;;;;4914914;29;20040;-56
2022/07/13 11:12:58;;;;;;;14.98;2.58;;;;;;;;;;4915927;29;20040;-51
2022/07/13 11:15:42;;;;;;;16.38;2.92;;;;;;;;;;4914819;29;20043;-50
2022/07/13 11:18:28;;;;;;;20.25;2.88;;;;;;;;;;4915398;29;20036;-51
2022/07/13 11:20:59;;;;;;;9.95;2.70;;;;;;;;;;4915646;29;20046;-55
2022/07/13 11:26:25;;;;;;;13.57;2.35;;;;;;;;;;4915879;29;20098;-52
2022/07/13 11:29:06;;;;;;;15.18;2.95;;;;;;;;;;4915189;29;20036;-55
2022/07/13 11:31:33;;;;;;;14.85;3.03;;;;;;;;;;4916066;29;20119;-54
2022/07/13 11:34:01;;;;;;;12.73;2.50;;;;;;;;;;4915099;29;20040;-54
2022/07/13 11:36:28;;;;;;;14.23;2.67;;;;;;;;;;4914882;29;20056;-52
2022/07/13 11:38:55;;;;;;;10.50;2.88;;;;;;;;;;4915990;29;20040;-53
2022/07/13 11:41:23;;;;;;;17.58;2.95;;;;;;;;;;4914608;29;20079;-54
2022/07/13 11:43:51;;;;;;;14.93;2.92;;;;;;;;;;4914986;29;20726;-54
2022/07/13 11:46:24;;;;;;;11.40;2.40;;;;;;;;;;4915697;29;20044;-50
2022/07/13 11:49:05;;;;;;;14.75;3.60;;;;;;;;;;4914993;29;20036;-54
2022/07/13 11:51:32;;;;;;;15.75;2.70;;;;;;;;;;4915334;29;20044;-55
2022/07/13 11:54:12;;;;;;;11.73;3.08;;;;;;;;;;4915640;29;20119;-54
2022/07/13 11:56:49;;;;;;;11.88;2.88;;;;;;;;;;4914952;29;20029;-54
2022/07/13 11:59:34;;;;;;;13.55;3.10;;;;;;;;;;4914673;29;20039;-54
2022/07/13 12:02:02;;;;;;;12.63;3.17;;;;;;;;;;4918247;29;20562;-56
2022/07/13 12:04:29;;;;;;;18.27;3.28;;;;;;;;;;4915779;29;20131;-53
2022/07/13 12:07:11;;;;;;;14.77;3.00;;;;;;;;;;4918441;29;20398;-56
2022/07/13 12:09:46;;;;;;;15.52;3.28;;;;;;;;;;4916204;29;20380;-55
2022/07/13 12:12:13;;;;;;;14.13;2.75;;;;;;;;;;4900144;29;20526;-56
2022/07/13 12:14:40;;;;;;;20.45;2.67;;;;;;;;;;4899173;29;20037;-56
2022/07/13 12:17:08;;;;;;;16.08;3.10;;;;;;;;;;4899345;29;20072;-56
2022/07/13 12:19:36;;;;;;;15.77;2.70;;;;;;;;;;4900038;29;20036;-55
2022/07/13 12:22:03;;;;;;;16.55;2.75;;;;;;;;;;4899231;29;20080;-56
2022/07/13 12:24:30;;;;;;;19.23;3.13;;;;;;;;;;4899735;29;20517;-53
2022/07/13 12:26:57;;;;;;;15.93;3.05;;;;;;;;;;4899204;29;20135;-53
2022/07/13 12:29:27;;;;;;;13.65;3.40;;;;;;;;;;4899616;29;20052;-56
2022/07/13 12:31:54;;;;;;;14.60;2.95;;;;;;;;;;4899882;29;20087;-55
2022/07/13 12:34:21;;;;;;;12.15;2.70;;;;;;;;;;4899035;29;20037;-51
2022/07/13 12:36:49;;;;;;;15.65;2.50;;;;;;;;;;4898834;29;20080;-54
2022/07/13 12:39:16;;;;;;;12.68;2.20;;;;;;;;;;4899679;29;20484;-55
2022/07/13 12:41:43;;;;;;;11.38;2.30;;;;;;;;;;4898713;29;20523;-53
2022/07/13 12:44:11;;;;;;;16.60;2.90;;;;;;;;;;4899237;29;20044;-54
2022/07/13 12:46:55;;;;;;;15.00;3.28;;;;;;;;;;4898991;29;20184;-53
2022/07/13 12:49:38;;;;;;;13.00;2.67;;;;;;;;;;4899371;29;20043;-55
2022/07/13 12:52:09;;;;;;;17.58;3.25;;;;;;;;;;4898943;29;20092;-55
2022/07/13 12:54:42;;;;;;;13.32;2.58;;;;;;;;;;4899510;29;20095;-53
2022/07/13 12:57:10;;;;;;;11.13;2.80;;;;;;;;;;4896887;29;20394;-51
2022/07/13 12:59:37;;;;;;;17.40;3.10;;;;;;;;;;4898845;29;20029;-53
2022/07/13 13:02:04;;;;;;;10.82;2.50;;;;;;;;;;4899037;29;20040;-56
2022/07/13 13:04:31;;;;;;;12.23;2.70;;;;;;;;;;4899116;29;20519;-55
2022/07/13 13:06:58;;;;;;;13.90;2.42;;;;;;;;;;4899919;29;20070;-57
2022/07/13 13:09:25;;;;;;;16.50;3.08;;;;;;;;;;4906353;29;20479;-56
2022/07/13 13:11:52;;;;;;;11.70;2.63;;;;;;;;;;4911928;29;20036;-54
2022/07/13 13:14:20;;;;;;;10.55;2.67;;;;;;;;;;4906010;29;20040;-55
2022/07/13 13:16:47;;;;;;;10.38;2.50;;;;;;;;;;4917710;29;20122;-57
2022/07/13 13:19:14;;;;;;;11.43;2.55;;;;;;;;;;4915709;29;20036;-53
2022/07/13 13:21:41;;;;;;;14.25;3.13;;;;;;;;;;4914533;29;20065;-54
2022/07/13 13:24:09;;;;;;;11.93;2.70;;;;;;;;;;4907940;29;20032;-54
2022/07/13 13:26:39;;;;;;;11.48;2.90;;;;;;;;;;4907084;29;20044;-51
2022/07/13 13:31:52;;;;;;;10.88;2.55;;;;;;;;;;4908896;29;20530;-57
2022/07/13 13:34:19;;;;;;;8.65;2.50;;;;;;;;;;4907806;29;20036;-55
2022/07/13 13:36:46;;;;;;;13.95;2.15;;;;;;;;;;4907645;29;20040;-53
2022/07/13 13:39:13;;;;;;;7.82;2.85;;;;;;;;;;4908116;29;20028;-56
2022/07/13 13:41:40;;;;;;;12.68;2.40;;;;;;;;;;4898125;29;20028;-55
2022/07/13 13:44:07;;;;;;;9.35;2.50;;;;;;;;;;4900765;29;20036;-56
2022/07/13 13:46:34;;;;;;;9.63;2.45;;;;;;;;;;4898011;29;20479;-55
2022/07/13 13:49:01;;;;;;;13.60;2.60;;;;;;;;;;4898126;29;20029;-57
2022/07/13 13:51:28;;;;;;;13.90;2.70;;;;;;;;;;4898995;29;20119;-55
2022/07/13 13:53:55;;;;;;;9.27;2.85;;;;;;;;;;4905966;29;20447;-55
2022/07/13 13:56:22;;;;;;;10.25;2.40;;;;;;;;;;4898156;29;20024;-56
2022/07/13 13:58:49;;;;;;;11.65;2.67;;;;;;;;;;4897938;29;20059;-54
2022/07/13 14:01:17;;;;;;;13.32;2.80;;;;;;;;;;4897768;29;20028;-53
2022/07/13 14:03:44;;;;;;;11.85;2.47;;;;;;;;;;4901735;29;20040;-56
2022/07/13 14:06:15;;;;;;;8.80;2.50;;;;;;;;;;4897789;29;20492;-57
2022/07/13 14:08:45;;;;;;;10.98;2.08;;;;;;;;;;4897479;29;20032;-56
2022/07/13 14:11:12;;;;;;;11.45;2.25;;;;;;;;;;4897377;29;20044;-53
2022/07/13 14:13:41;;;;;;;16.20;2.17;;;;;;;;;;4897484;29;20080;-55
2022/07/13 14:16:08;;;;;;;12.73;2.22;;;;;;;;;;4896332;29;20069;-56
2022/07/13 14:18:36;;;;;;;12.98;2.00;;;;;;;;;;4897789;29;20032;-57
2022/07/13 14:21:04;;;;;;;13.05;2.33;;;;;;;;;;4897046;29;20039;-54
2022/07/13 14:23:31;;;;;;;17.70;3.15;;;;;;;;;;4903951;29;20130;-57
2022/07/13 14:25:58;;;;;;;13.98;2.80;;;;;;;;;;4898317;29;20040;-57
2022/07/13 14:28:25;;;;;;;24.77;3.25;;;;;;;;;;4898856;29;20036;-55
2022/07/13 14:30:52;;;;;;;15.55;2.92;;;;;;;;;;4897597;29;20033;-53
2022/07/13 14:33:19;;;;;;;19.42;3.50;;;;;;;;;;4909524;29;20036;-59
2022/07/13 14:35:46;;;;;;;15.43;2.90;;;;;;;;;;4915684;29;20079;-59
2022/07/13 14:38:14;;;;;;;23.75;3.58;;;;;;;;;;4916741;29;20036;-59
2022/07/13 14:40:43;;;;;;;23.55;3.25;;;;;;;;;;4916301;29;20495;-58
2022/07/13 14:43:11;;;;;;;25.25;3.47;;;;;;;;;;4915955;29;20075;-59
2022/07/13 14:45:38;;;;;;;25.58;3.15;;;;;;;;;;4907903;29;20135;-59